Time;durP1;ratioP1;P1;durP2;ratioP2;P2;SDS_P1;SDS_P2;PMS_P1;PMS_P2;Temp;Humidity;BMP_temperature;BMP_pressure;BME280_temperature;BME280_humidity;BME280_pressure;Samples;Min_cycle;Max_cycle;Signal;HPM_P1;HPM_P2
2022/12/08 00:00:15;;;;;;;29.70;27.42;;;;;;;;;;5114744;28;20304;-77
2022/12/08 00:02:43;;;;;;;29.92;27.25;;;;;;;;;;5105862;28;20590;-78
2022/12/08 00:10:43;;;;;;;30.63;27.83;;;;;;;;;;5099430;28;20220;-78
2022/12/08 00:13:11;;;;;;;28.45;25.95;;;;;;;;;;5102746;28;20242;-78
2022/12/08 00:15:38;;;;;;;27.08;24.80;;;;;;;;;;5103220;28;20233;-77
2022/12/08 00:18:06;;;;;;;27.65;25.55;;;;;;;;;;5104780;28;20669;-78
2022/12/08 00:20:34;;;;;;;30.45;27.90;;;;;;;;;;5103682;28;20205;-77
2022/12/08 00:23:03;;;;;;;29.98;27.50;;;;;;;;;;5103015;28;20877;-77
2022/12/08 00:25:30;;;;;;;29.58;27.15;;;;;;;;;;5104067;28;20257;-78
2022/12/08 00:27:57;;;;;;;30.65;28.05;;;;;;;;;;5104878;28;20215;-78
2022/12/08 00:30:24;;;;;;;29.00;26.63;;;;;;;;;;5105460;28;20335;-78
2022/12/08 00:32:51;;;;;;;29.05;26.75;;;;;;;;;;5106099;28;20676;-78
2022/12/08 00:35:19;;;;;;;29.02;26.55;;;;;;;;;;5104951;28;20239;-76
2022/12/08 00:37:47;;;;;;;29.45;27.15;;;;;;;;;;5108924;28;20285;-77
2022/12/08 00:40:14;;;;;;;29.48;26.98;;;;;;;;;;5102981;28;20664;-78
2022/12/08 00:42:41;;;;;;;27.67;25.55;;;;;;;;;;5101445;28;20188;-78
2022/12/08 00:45:09;;;;;;;27.00;24.98;;;;;;;;;;5101173;28;20201;-78
2022/12/08 00:47:36;;;;;;;28.33;25.98;;;;;;;;;;5102066;28;20212;-78
2022/12/08 00:50:04;;;;;;;30.05;27.42;;;;;;;;;;5103255;28;20667;-77
2022/12/08 00:52:32;;;;;;;30.38;27.65;;;;;;;;;;5102207;28;20207;-77
2022/12/08 00:55:01;;;;;;;31.58;28.60;;;;;;;;;;5102033;28;20227;-77
2022/12/08 00:57:28;;;;;;;30.98;28.05;;;;;;;;;;5101640;28;20616;-78
2022/12/08 00:59:56;;;;;;;30.05;27.48;;;;;;;;;;5101825;28;20208;-78
2022/12/08 01:02:23;;;;;;;31.70;28.23;;;;;;;;;;5103467;28;20215;-78
2022/12/08 01:04:50;;;;;;;29.70;27.25;;;;;;;;;;5100705;28;20228;-75
2022/12/08 01:07:17;;;;;;;30.10;27.65;;;;;;;;;;5103159;28;20254;-75
2022/12/08 01:09:45;;;;;;;32.83;30.02;;;;;;;;;;5101880;28;20568;-78
2022/12/08 01:12:13;;;;;;;30.05;27.33;;;;;;;;;;5102770;28;20214;-77
2022/12/08 01:14:41;;;;;;;32.60;29.55;;;;;;;;;;5101360;28;20216;-79
2022/12/08 01:17:08;;;;;;;31.40;28.83;;;;;;;;;;5099141;28;20704;-77
2022/12/08 01:19:35;;;;;;;29.80;27.30;;;;;;;;;;5102804;28;20678;-76
2022/12/08 01:22:03;;;;;;;30.77;28.20;;;;;;;;;;5100697;28;20210;-76
2022/12/08 01:24:30;;;;;;;32.03;28.92;;;;;;;;;;5100795;28;20213;-77
2022/12/08 01:26:57;;;;;;;31.58;28.85;;;;;;;;;;5099214;28;20255;-78
2022/12/08 01:29:27;;;;;;;30.55;27.77;;;;;;;;;;5097949;28;20209;-77
2022/12/08 01:31:54;;;;;;;33.85;28.98;;;;;;;;;;5096847;28;20210;-77
2022/12/08 01:34:21;;;;;;;30.38;27.80;;;;;;;;;;5099068;28;20605;-78
2022/12/08 01:36:48;;;;;;;29.83;27.42;;;;;;;;;;5095981;28;20231;-78
2022/12/08 01:39:17;;;;;;;31.05;27.90;;;;;;;;;;5096113;28;20214;-78
2022/12/08 01:41:46;;;;;;;31.63;29.08;;;;;;;;;;5096776;28;20213;-78
2022/12/08 01:44:32;;;;;;;30.95;28.45;;;;;;;;;;5095935;28;20207;-77
2022/12/08 01:47:00;;;;;;;31.15;28.45;;;;;;;;;;5100480;28;20224;-78
2022/12/08 01:49:29;;;;;;;31.55;28.90;;;;;;;;;;5096681;28;20214;-77
2022/12/08 01:51:59;;;;;;;30.17;27.77;;;;;;;;;;5096560;28;20609;-78
2022/12/08 01:54:29;;;;;;;31.15;28.45;;;;;;;;;;5096494;28;20227;-77
2022/12/08 01:56:59;;;;;;;27.50;25.20;;;;;;;;;;5095428;28;20221;-77
2022/12/08 01:59:27;;;;;;;29.02;26.63;;;;;;;;;;5098214;28;20200;-78
2022/12/08 02:01:54;;;;;;;29.55;27.08;;;;;;;;;;5095746;28;20209;-77
2022/12/08 02:04:22;;;;;;;31.75;29.17;;;;;;;;;;5095619;28;20201;-77
2022/12/08 02:06:50;;;;;;;28.15;25.60;;;;;;;;;;5095875;28;20224;-78
2022/12/08 02:09:17;;;;;;;30.30;27.80;;;;;;;;;;5094753;28;20213;-78
2022/12/08 02:11:44;;;;;;;29.90;27.50;;;;;;;;;;5095203;28;20227;-77
2022/12/08 02:14:12;;;;;;;30.00;27.50;;;;;;;;;;5095288;28;20215;-78
2022/12/08 02:16:43;;;;;;;29.50;27.38;;;;;;;;;;5095469;28;20696;-78
2022/12/08 02:19:20;;;;;;;29.30;26.65;;;;;;;;;;5095280;28;20672;-78
2022/12/08 02:21:52;;;;;;;28.42;26.08;;;;;;;;;;5095807;28;20189;-78
2022/12/08 02:24:24;;;;;;;32.97;29.98;;;;;;;;;;5095775;28;20536;-77
2022/12/08 02:27:09;;;;;;;29.52;27.05;;;;;;;;;;5095522;28;20224;-77
2022/12/08 02:30:00;;;;;;;29.55;26.95;;;;;;;;;;5094762;28;20209;-77
2022/12/08 02:32:39;;;;;;;30.70;28.10;;;;;;;;;;5095592;28;20246;-77
2022/12/08 02:35:11;;;;;;;32.90;30.02;;;;;;;;;;5094537;28;20231;-77
2022/12/08 02:37:40;;;;;;;30.80;28.45;;;;;;;;;;5094882;28;20691;-77
2022/12/08 02:40:13;;;;;;;31.65;28.85;;;;;;;;;;5096745;28;20227;-77
2022/12/08 02:42:42;;;;;;;27.00;25.00;;;;;;;;;;5096050;28;20315;-78
2022/12/08 02:45:12;;;;;;;29.40;27.10;;;;;;;;;;5094406;28;20209;-78
2022/12/08 02:47:40;;;;;;;28.38;26.10;;;;;;;;;;5094975;28;20205;-78
2022/12/08 02:50:10;;;;;;;28.25;26.00;;;;;;;;;;5095488;28;20220;-77
2022/12/08 02:52:41;;;;;;;29.90;27.73;;;;;;;;;;5095453;28;20201;-77
2022/12/08 02:55:10;;;;;;;26.70;24.48;;;;;;;;;;5094113;28;20306;-79
2022/12/08 02:57:43;;;;;;;31.85;28.95;;;;;;;;;;5094475;28;20212;-77
2022/12/08 03:00:12;;;;;;;26.95;25.17;;;;;;;;;;5095424;28;20201;-76
2022/12/08 03:02:44;;;;;;;27.63;25.80;;;;;;;;;;5094764;28;20212;-77
2022/12/08 03:05:21;;;;;;;34.55;31.65;;;;;;;;;;5094504;28;20594;-78
2022/12/08 03:07:51;;;;;;;33.80;31.02;;;;;;;;;;5094890;28;20190;-77
2022/12/08 03:10:25;;;;;;;34.65;31.88;;;;;;;;;;5094690;28;20193;-78
2022/12/08 03:12:54;;;;;;;30.42;28.13;;;;;;;;;;5094853;28;20189;-78
2022/12/08 03:15:22;;;;;;;34.40;31.40;;;;;;;;;;5094268;28;20229;-77
2022/12/08 03:17:51;;;;;;;30.50;27.77;;;;;;;;;;5099542;28;20209;-77
2022/12/08 03:20:21;;;;;;;31.08;28.40;;;;;;;;;;5099418;28;20211;-78
2022/12/08 03:22:49;;;;;;;31.27;28.27;;;;;;;;;;5099184;28;20530;-77
2022/12/08 03:25:17;;;;;;;32.17;29.20;;;;;;;;;;5097697;28;20715;-78
2022/12/08 03:27:45;;;;;;;36.50;33.00;;;;;;;;;;5097953;28;20208;-77
2022/12/08 03:30:12;;;;;;;40.45;36.60;;;;;;;;;;5098743;28;20205;-77
2022/12/08 03:32:43;;;;;;;33.78;30.70;;;;;;;;;;5098435;28;20222;-77
2022/12/08 03:35:12;;;;;;;27.17;25.23;;;;;;;;;;5097466;28;20211;-76
2022/12/08 03:37:41;;;;;;;28.80;26.58;;;;;;;;;;5098398;28;20219;-78
2022/12/08 03:40:10;;;;;;;34.33;31.33;;;;;;;;;;5098866;28;20204;-78
2022/12/08 03:42:37;;;;;;;35.83;32.55;;;;;;;;;;5098444;28;20211;-77
2022/12/08 03:45:04;;;;;;;30.13;27.25;;;;;;;;;;5097493;28;20208;-77
2022/12/08 03:47:31;;;;;;;35.78;32.13;;;;;;;;;;5097991;28;20615;-77
2022/12/08 03:49:58;;;;;;;32.53;29.80;;;;;;;;;;5099163;28;20211;-77
2022/12/08 03:52:25;;;;;;;32.97;30.13;;;;;;;;;;5098273;28;20212;-78
2022/12/08 03:54:54;;;;;;;31.95;29.30;;;;;;;;;;5098315;28;20688;-77
2022/12/08 03:57:21;;;;;;;38.72;35.38;;;;;;;;;;5097799;28;20209;-77
2022/12/08 03:59:48;;;;;;;37.75;34.05;;;;;;;;;;5098070;28;20611;-77
2022/12/08 04:02:15;;;;;;;38.50;34.80;;;;;;;;;;5098327;28;20200;-77
2022/12/08 04:04:43;;;;;;;40.40;36.50;;;;;;;;;;5098263;28;20564;-77
2022/12/08 04:07:10;;;;;;;38.72;35.33;;;;;;;;;;5098113;28;20575;-78
2022/12/08 04:09:37;;;;;;;41.95;37.92;;;;;;;;;;5098019;28;20681;-77
2022/12/08 04:12:06;;;;;;;40.30;36.65;;;;;;;;;;5081953;28;20210;-77
2022/12/08 04:14:33;;;;;;;37.85;34.30;;;;;;;;;;5077098;28;20232;-77
2022/12/08 04:17:00;;;;;;;33.97;31.05;;;;;;;;;;5076728;28;20224;-78
2022/12/08 04:19:27;;;;;;;35.90;32.15;;;;;;;;;;5077301;28;20231;-78
2022/12/08 04:21:54;;;;;;;41.03;36.97;;;;;;;;;;5077177;28;20217;-78
2022/12/08 04:24:21;;;;;;;29.42;27.17;;;;;;;;;;5077250;28;20210;-77
2022/12/08 04:26:49;;;;;;;42.25;38.05;;;;;;;;;;5077474;28;20581;-77
2022/12/08 04:29:17;;;;;;;40.92;36.90;;;;;;;;;;5076936;28;20208;-78
2022/12/08 04:31:45;;;;;;;36.90;33.53;;;;;;;;;;5076979;28;20212;-77
2022/12/08 04:34:12;;;;;;;37.03;33.58;;;;;;;;;;5076189;28;20261;-77
2022/12/08 04:36:39;;;;;;;38.58;34.67;;;;;;;;;;5076173;28;20705;-78
2022/12/08 04:39:06;;;;;;;31.75;29.15;;;;;;;;;;5076096;28;20555;-77
2022/12/08 04:41:34;;;;;;;38.35;34.83;;;;;;;;;;5076477;28;20734;-78
2022/12/08 04:44:01;;;;;;;39.88;35.85;;;;;;;;;;5077507;28;20539;-79
2022/12/08 04:46:29;;;;;;;40.35;36.40;;;;;;;;;;5076599;28;20226;-77
2022/12/08 04:48:57;;;;;;;41.53;37.38;;;;;;;;;;5083517;28;20206;-77
2022/12/08 04:51:26;;;;;;;35.22;31.98;;;;;;;;;;5088302;28;20232;-78
2022/12/08 04:53:53;;;;;;;36.90;33.35;;;;;;;;;;5075823;28;20262;-77
2022/12/08 04:56:20;;;;;;;36.15;32.65;;;;;;;;;;5076072;28;20224;-78
2022/12/08 04:58:47;;;;;;;35.83;32.22;;;;;;;;;;5076522;28;20684;-77
2022/12/08 05:01:15;;;;;;;40.78;36.72;;;;;;;;;;5076712;28;20209;-77
2022/12/08 05:03:43;;;;;;;41.22;37.13;;;;;;;;;;5075435;28;20300;-77
2022/12/08 05:06:11;;;;;;;41.25;37.38;;;;;;;;;;5076248;28;20734;-78
2022/12/08 05:08:38;;;;;;;40.25;36.05;;;;;;;;;;5081573;28;20210;-76
2022/12/08 05:11:06;;;;;;;27.90;25.65;;;;;;;;;;5078323;28;20214;-78
2022/12/08 05:13:33;;;;;;;35.42;31.95;;;;;;;;;;5078028;28;20209;-77
2022/12/08 05:16:04;;;;;;;27.25;25.02;;;;;;;;;;5076020;28;20229;-77
2022/12/08 05:18:31;;;;;;;36.15;32.85;;;;;;;;;;5076495;28;20206;-77
2022/12/08 05:21:00;;;;;;;40.63;36.75;;;;;;;;;;5075979;28;20258;-78
2022/12/08 05:23:27;;;;;;;29.05;26.65;;;;;;;;;;5077737;28;20209;-77
2022/12/08 05:25:55;;;;;;;38.15;34.45;;;;;;;;;;5076676;28;20224;-78
2022/12/08 05:28:22;;;;;;;34.97;31.77;;;;;;;;;;5076612;28;20209;-77
2022/12/08 05:30:50;;;;;;;28.50;26.40;;;;;;;;;;5076731;28;20217;-77
2022/12/08 05:33:17;;;;;;;35.30;32.20;;;;;;;;;;5076017;28;20209;-78
2022/12/08 05:35:44;;;;;;;31.42;29.02;;;;;;;;;;5075671;28;20229;-77
2022/12/08 05:38:12;;;;;;;36.25;32.75;;;;;;;;;;5076534;28;20253;-77
2022/12/08 05:40:40;;;;;;;35.90;32.40;;;;;;;;;;5077469;28;20208;-78
2022/12/08 05:43:08;;;;;;;35.25;31.85;;;;;;;;;;5076596;28;20205;-77
2022/12/08 05:45:35;;;;;;;38.50;34.47;;;;;;;;;;5076536;28;20577;-78
2022/12/08 05:48:02;;;;;;;37.47;33.78;;;;;;;;;;5079242;28;20209;-78
2022/12/08 05:50:29;;;;;;;35.50;32.30;;;;;;;;;;5077706;28;20209;-77
2022/12/08 05:52:56;;;;;;;32.33;29.30;;;;;;;;;;5078850;28;20205;-77
2022/12/08 05:55:25;;;;;;;33.78;30.88;;;;;;;;;;5077095;28;20228;-78
2022/12/08 05:57:52;;;;;;;34.60;31.50;;;;;;;;;;5080981;28;20739;-78
2022/12/08 06:00:19;;;;;;;36.03;32.83;;;;;;;;;;5077861;28;20200;-77
2022/12/08 06:02:47;;;;;;;37.53;34.00;;;;;;;;;;5078644;28;20209;-77
2022/12/08 06:05:14;;;;;;;34.72;31.40;;;;;;;;;;5077890;28;20202;-78
2022/12/08 06:07:41;;;;;;;40.28;36.38;;;;;;;;;;5077706;28;20715;-77
2022/12/08 06:10:08;;;;;;;35.53;32.40;;;;;;;;;;5076347;28;20213;-77
2022/12/08 06:12:37;;;;;;;39.33;35.88;;;;;;;;;;5076609;28;20211;-77
2022/12/08 06:15:04;;;;;;;44.05;39.55;;;;;;;;;;5087421;28;20211;-78
2022/12/08 06:17:31;;;;;;;44.83;39.58;;;;;;;;;;5075884;28;20240;-76
2022/12/08 06:19:58;;;;;;;45.05;40.35;;;;;;;;;;5076677;28;20204;-78
2022/12/08 06:22:26;;;;;;;46.45;41.33;;;;;;;;;;5075391;28;20212;-78
2022/12/08 06:24:53;;;;;;;46.10;41.22;;;;;;;;;;5076587;28;20208;-76
2022/12/08 06:27:20;;;;;;;45.05;40.25;;;;;;;;;;5076151;28;20204;-77
2022/12/08 06:29:49;;;;;;;45.03;40.20;;;;;;;;;;5075623;28;20219;-77
2022/12/08 06:32:16;;;;;;;31.05;28.40;;;;;;;;;;5075109;28;20210;-77
2022/12/08 06:34:43;;;;;;;41.70;37.20;;;;;;;;;;5073987;28;20213;-77
2022/12/08 06:37:10;;;;;;;44.10;38.15;;;;;;;;;;5074131;28;20224;-77
2022/12/08 06:39:37;;;;;;;43.83;39.33;;;;;;;;;;5074630;28;20212;-78
2022/12/08 06:44:51;;;;;;;40.63;36.28;;;;;;;;;;5074464;28;20188;-77
2022/12/08 06:47:18;;;;;;;33.78;30.50;;;;;;;;;;5074084;28;20549;-77
2022/12/08 06:49:45;;;;;;;41.33;36.92;;;;;;;;;;5074108;28;20289;-77
2022/12/08 06:52:13;;;;;;;34.88;31.30;;;;;;;;;;5075657;28;20223;-76
2022/12/08 06:54:40;;;;;;;42.95;38.78;;;;;;;;;;5074219;28;20291;-77
2022/12/08 06:57:07;;;;;;;42.25;37.88;;;;;;;;;;5074036;28;20242;-78
2022/12/08 06:59:34;;;;;;;41.42;37.13;;;;;;;;;;5075157;28;20193;-78
2022/12/08 07:02:02;;;;;;;34.70;31.10;;;;;;;;;;5074630;28;20205;-77
2022/12/08 07:04:30;;;;;;;43.00;38.45;;;;;;;;;;5073777;28;20211;-77
2022/12/08 07:06:57;;;;;;;43.17;38.47;;;;;;;;;;5074466;28;20270;-77
2022/12/08 07:09:24;;;;;;;42.55;38.05;;;;;;;;;;5074169;28;20204;-77
2022/12/08 07:11:51;;;;;;;42.17;37.78;;;;;;;;;;5074418;28;20219;-78
2022/12/08 07:14:19;;;;;;;40.00;35.97;;;;;;;;;;5073885;28;20204;-77
2022/12/08 07:16:46;;;;;;;34.83;31.45;;;;;;;;;;5074604;28;20255;-78
2022/12/08 07:19:14;;;;;;;38.25;34.33;;;;;;;;;;5074429;28;20201;-77
2022/12/08 07:21:41;;;;;;;42.75;38.25;;;;;;;;;;5074415;28;20204;-78
2022/12/08 07:24:09;;;;;;;33.40;30.13;;;;;;;;;;5073411;28;20205;-77
2022/12/08 07:26:36;;;;;;;40.15;35.95;;;;;;;;;;5074028;28;20228;-76
2022/12/08 07:29:03;;;;;;;44.72;37.10;;;;;;;;;;5074281;28;20235;-77
2022/12/08 07:31:30;;;;;;;38.33;34.42;;;;;;;;;;5074731;28;20207;-77
2022/12/08 07:33:57;;;;;;;35.42;31.85;;;;;;;;;;5073558;28;20211;-78
2022/12/08 07:36:26;;;;;;;36.33;32.72;;;;;;;;;;5072853;28;20240;-77
2022/12/08 07:38:53;;;;;;;39.78;34.85;;;;;;;;;;5073560;28;20695;-77
2022/12/08 07:41:21;;;;;;;40.03;35.80;;;;;;;;;;5073863;28;20215;-77
2022/12/08 07:43:48;;;;;;;34.22;31.10;;;;;;;;;;5073287;28;20201;-78
2022/12/08 07:46:16;;;;;;;37.83;34.00;;;;;;;;;;5073386;28;20221;-76
2022/12/08 07:48:43;;;;;;;39.72;35.78;;;;;;;;;;5072436;28;20206;-76
2022/12/08 07:51:11;;;;;;;37.33;33.63;;;;;;;;;;5071536;28;20708;-75
2022/12/08 07:53:41;;;;;;;37.85;33.90;;;;;;;;;;5071536;28;20675;-75
2022/12/08 07:56:09;;;;;;;33.03;29.92;;;;;;;;;;5072224;28;20340;-75
2022/12/08 07:58:36;;;;;;;36.95;33.40;;;;;;;;;;5072788;28;20602;-75
2022/12/08 08:01:03;;;;;;;31.10;28.35;;;;;;;;;;5072501;28;20219;-75
2022/12/08 08:03:30;;;;;;;39.38;35.58;;;;;;;;;;5075581;28;20564;-74
2022/12/08 08:06:02;;;;;;;32.65;29.83;;;;;;;;;;5075424;28;20707;-75
2022/12/08 08:08:30;;;;;;;37.72;33.75;;;;;;;;;;5075965;28;20654;-74
2022/12/08 08:10:59;;;;;;;39.38;35.60;;;;;;;;;;5077036;28;20204;-76
2022/12/08 08:13:26;;;;;;;30.02;27.45;;;;;;;;;;5075560;28;20208;-75
2022/12/08 08:15:53;;;;;;;36.55;32.90;;;;;;;;;;5075471;28;20267;-76
2022/12/08 08:18:20;;;;;;;39.17;35.17;;;;;;;;;;5075552;28;20574;-75
2022/12/08 08:20:47;;;;;;;37.30;33.55;;;;;;;;;;5076488;28;20213;-75
2022/12/08 08:23:14;;;;;;;33.00;29.90;;;;;;;;;;5077237;28;20201;-75
2022/12/08 08:25:41;;;;;;;35.72;32.22;;;;;;;;;;5074913;28;20233;-75
2022/12/08 08:28:09;;;;;;;35.17;31.98;;;;;;;;;;5074260;28;20561;-75
2022/12/08 08:30:36;;;;;;;33.83;30.52;;;;;;;;;;5074297;28;20228;-75
2022/12/08 08:33:03;;;;;;;30.52;28.10;;;;;;;;;;5073727;28;20273;-75
2022/12/08 08:35:30;;;;;;;30.40;27.80;;;;;;;;;;5075200;28;20224;-74
2022/12/08 08:37:57;;;;;;;35.25;31.85;;;;;;;;;;5074783;28;20215;-75
2022/12/08 08:40:24;;;;;;;34.42;31.27;;;;;;;;;;5074304;28;20215;-75
2022/12/08 08:42:51;;;;;;;33.92;30.73;;;;;;;;;;5075262;28;20628;-75
2022/12/08 08:45:20;;;;;;;32.53;29.65;;;;;;;;;;5074926;28;20228;-75
2022/12/08 08:47:47;;;;;;;33.20;30.15;;;;;;;;;;5076868;28;20214;-75
2022/12/08 08:50:14;;;;;;;27.73;25.40;;;;;;;;;;5076985;28;20220;-75
2022/12/08 08:52:41;;;;;;;29.35;26.52;;;;;;;;;;5075703;28;20208;-75
2022/12/08 08:55:08;;;;;;;29.60;27.00;;;;;;;;;;5075594;28;20212;-77
2022/12/08 08:57:35;;;;;;;31.70;28.67;;;;;;;;;;5075396;28;20228;-75
2022/12/08 09:00:03;;;;;;;34.78;31.63;;;;;;;;;;5076232;28;20207;-76
2022/12/08 09:02:31;;;;;;;28.52;26.02;;;;;;;;;;5075370;28;20235;-75
2022/12/08 09:04:58;;;;;;;29.65;26.90;;;;;;;;;;5074280;28;20212;-76
2022/12/08 09:07:26;;;;;;;32.50;29.60;;;;;;;;;;5074467;28;20208;-75
2022/12/08 09:09:53;;;;;;;31.65;28.65;;;;;;;;;;5075379;28;20215;-75
2022/12/08 09:12:20;;;;;;;29.75;27.40;;;;;;;;;;5076399;28;20290;-75
2022/12/08 09:14:47;;;;;;;30.15;27.55;;;;;;;;;;5072957;28;20934;-76
2022/12/08 09:17:14;;;;;;;25.60;23.63;;;;;;;;;;5072985;28;20224;-76
2022/12/08 09:19:43;;;;;;;31.50;28.92;;;;;;;;;;5073569;28;20213;-76
2022/12/08 09:22:10;;;;;;;29.85;27.02;;;;;;;;;;5073694;28;20204;-77
2022/12/08 09:24:37;;;;;;;30.52;27.48;;;;;;;;;;5074621;28;20949;-76
2022/12/08 09:27:04;;;;;;;31.17;28.48;;;;;;;;;;5074069;28;20234;-75
2022/12/08 09:29:31;;;;;;;30.30;27.70;;;;;;;;;;5075995;28;20677;-82
2022/12/08 09:31:58;;;;;;;30.20;27.63;;;;;;;;;;5094901;28;20279;-85
2022/12/08 09:34:25;;;;;;;28.60;26.15;;;;;;;;;;5080010;28;20224;-86
2022/12/08 09:36:54;;;;;;;26.55;24.42;;;;;;;;;;5079577;28;20242;-82
2022/12/08 09:39:21;;;;;;;25.40;23.55;;;;;;;;;;5081136;28;20188;-82
2022/12/08 09:41:49;;;;;;;31.55;28.80;;;;;;;;;;5080248;28;20216;-83
2022/12/08 09:44:27;;;;;;;28.30;26.10;;;;;;;;;;5078889;28;20213;-83
2022/12/08 09:46:56;;;;;;;29.20;27.00;;;;;;;;;;5078116;28;20322;-84
2022/12/08 09:49:25;;;;;;;29.95;27.45;;;;;;;;;;5093159;28;20203;-75
2022/12/08 09:51:53;;;;;;;29.60;27.45;;;;;;;;;;5094352;28;20212;-75
2022/12/08 09:54:23;;;;;;;25.35;23.65;;;;;;;;;;5096503;28;20203;-75
2022/12/08 09:56:52;;;;;;;29.73;27.25;;;;;;;;;;5095144;28;20250;-74
2022/12/08 09:59:23;;;;;;;25.65;23.90;;;;;;;;;;5096013;28;20199;-76
2022/12/08 10:01:50;;;;;;;29.70;27.20;;;;;;;;;;5095298;28;20231;-75
2022/12/08 10:04:21;;;;;;;29.85;27.35;;;;;;;;;;5096594;28;20212;-74
2022/12/08 10:06:51;;;;;;;25.58;23.77;;;;;;;;;;5096664;28;20224;-82
2022/12/08 10:09:23;;;;;;;24.58;22.88;;;;;;;;;;5100430;28;20208;-82
2022/12/08 10:11:54;;;;;;;29.52;27.25;;;;;;;;;;5107778;28;20192;-82
2022/12/08 10:14:23;;;;;;;24.85;23.35;;;;;;;;;;5108078;28;20193;-83
2022/12/08 10:16:52;;;;;;;29.33;27.13;;;;;;;;;;5107488;28;20225;-81
2022/12/08 10:19:21;;;;;;;27.50;25.40;;;;;;;;;;5106887;28;20210;-83
2022/12/08 10:21:48;;;;;;;27.60;25.60;;;;;;;;;;5106461;28;20219;-81
2022/12/08 10:24:19;;;;;;;30.95;28.65;;;;;;;;;;5104687;28;20204;-81
2022/12/08 10:26:48;;;;;;;28.50;26.50;;;;;;;;;;5107220;28;20307;-83
2022/12/08 10:29:17;;;;;;;29.42;27.23;;;;;;;;;;5105342;28;20188;-85
2022/12/08 10:31:44;;;;;;;28.35;26.25;;;;;;;;;;5103063;28;20211;-75
2022/12/08 10:34:16;;;;;;;32.70;29.85;;;;;;;;;;5100228;28;20211;-74
2022/12/08 10:36:50;;;;;;;27.70;25.52;;;;;;;;;;5100260;28;20323;-74
2022/12/08 10:39:30;;;;;;;27.30;25.27;;;;;;;;;;5102439;28;20298;-75
2022/12/08 10:42:01;;;;;;;33.58;31.15;;;;;;;;;;5100089;28;20208;-74
2022/12/08 10:44:30;;;;;;;31.40;29.20;;;;;;;;;;5098255;28;20210;-74
2022/12/08 10:46:57;;;;;;;27.90;25.90;;;;;;;;;;5102075;28;20216;-85
2022/12/08 10:49:27;;;;;;;26.27;24.48;;;;;;;;;;5103190;28;20200;-86
2022/12/08 10:51:54;;;;;;;28.83;26.63;;;;;;;;;;5101890;28;20238;-84
2022/12/08 10:54:27;;;;;;;26.77;24.90;;;;;;;;;;5103120;28;20193;-85
2022/12/08 10:56:54;;;;;;;25.77;23.88;;;;;;;;;;5104859;28;20793;-81
2022/12/08 10:59:24;;;;;;;24.92;23.17;;;;;;;;;;5105265;28;20593;-79
2022/12/08 11:01:53;;;;;;;23.08;21.65;;;;;;;;;;5102023;28;20671;-79
2022/12/08 11:04:21;;;;;;;30.65;28.35;;;;;;;;;;5101847;28;20204;-79
2022/12/08 11:06:49;;;;;;;27.42;25.40;;;;;;;;;;5095806;28;20229;-77
2022/12/08 11:09:35;;;;;;;26.70;24.75;;;;;;;;;;5093465;28;20223;-79
2022/12/08 11:12:07;;;;;;;27.75;25.77;;;;;;;;;;5093205;28;20200;-78
2022/12/08 11:14:38;;;;;;;27.52;25.55;;;;;;;;;;5092958;28;20192;-79
2022/12/08 11:17:08;;;;;;;29.60;27.63;;;;;;;;;;5093405;28;20320;-79
2022/12/08 11:19:37;;;;;;;24.42;22.92;;;;;;;;;;5093361;28;20536;-78
2022/12/08 11:22:20;;;;;;;27.45;25.45;;;;;;;;;;5092974;28;20725;-79
2022/12/08 11:24:56;;;;;;;26.70;24.90;;;;;;;;;;5092918;28;20191;-77
2022/12/08 11:27:24;;;;;;;25.95;24.15;;;;;;;;;;5093134;28;20180;-78
2022/12/08 11:29:51;;;;;;;25.75;24.05;;;;;;;;;;5093283;28;20203;-79
2022/12/08 11:32:19;;;;;;;22.42;20.98;;;;;;;;;;5093677;28;20208;-77
2022/12/08 11:34:49;;;;;;;25.13;23.42;;;;;;;;;;5093005;28;20213;-80
2022/12/08 11:37:18;;;;;;;25.85;24.15;;;;;;;;;;5096351;28;20281;-79
2022/12/08 11:39:47;;;;;;;24.58;22.80;;;;;;;;;;5098403;28;20202;-77
2022/12/08 11:42:16;;;;;;;25.13;23.40;;;;;;;;;;5097097;28;20207;-79
2022/12/08 11:44:47;;;;;;;23.13;21.52;;;;;;;;;;5096938;28;20208;-78
2022/12/08 11:47:18;;;;;;;25.40;23.75;;;;;;;;;;5098853;28;20224;-85
2022/12/08 11:49:47;;;;;;;24.08;22.48;;;;;;;;;;5093587;28;20217;-84
2022/12/08 11:52:19;;;;;;;24.02;22.52;;;;;;;;;;5104250;28;20573;-84
2022/12/08 11:54:49;;;;;;;24.55;23.05;;;;;;;;;;5104232;28;20526;-84
2022/12/08 11:57:19;;;;;;;23.85;22.35;;;;;;;;;;5105108;28;20239;-84
2022/12/08 11:59:48;;;;;;;25.23;23.52;;;;;;;;;;5103775;28;20226;-83
2022/12/08 12:02:17;;;;;;;23.10;21.70;;;;;;;;;;5103920;28;20210;-84
2022/12/08 12:04:48;;;;;;;24.50;22.90;;;;;;;;;;5104536;28;20379;-85
2022/12/08 12:07:36;;;;;;;24.88;23.27;;;;;;;;;;5103951;28;20267;-84
2022/12/08 12:10:09;;;;;;;23.83;22.33;;;;;;;;;;5104212;28;20233;-84
2022/12/08 12:12:46;;;;;;;22.95;21.55;;;;;;;;;;5104844;28;20277;-81
2022/12/08 12:15:22;;;;;;;23.67;22.08;;;;;;;;;;5104021;28;20196;-82
2022/12/08 12:17:52;;;;;;;22.23;20.85;;;;;;;;;;5104730;28;20208;-83
2022/12/08 12:20:21;;;;;;;24.38;22.88;;;;;;;;;;5104286;28;20202;-80
2022/12/08 12:22:51;;;;;;;23.35;21.85;;;;;;;;;;5103958;28;20216;-81
2022/12/08 12:25:22;;;;;;;22.20;20.80;;;;;;;;;;5105626;28;20582;-82
2022/12/08 12:30:56;;;;;;;22.60;21.00;;;;;;;;;;5102941;28;20198;-87
2022/12/08 12:33:23;;;;;;;23.80;22.23;;;;;;;;;;5104899;28;20219;-82
2022/12/08 12:35:51;;;;;;;23.38;21.88;;;;;;;;;;5103446;28;20225;-82
2022/12/08 12:41:10;;;;;;;21.30;20.05;;;;;;;;;;5104975;28;20188;-83
2022/12/08 12:43:38;;;;;;;24.00;22.60;;;;;;;;;;5101752;28;20216;-77
2022/12/08 12:46:24;;;;;;;22.20;20.80;;;;;;;;;;5098363;28;20233;-81
2022/12/08 12:48:52;;;;;;;21.30;19.90;;;;;;;;;;5101610;28;20220;-82
2022/12/08 12:51:36;;;;;;;23.27;21.83;;;;;;;;;;5103031;28;20209;-83
2022/12/08 12:54:18;;;;;;;23.48;21.88;;;;;;;;;;5103691;28;20188;-81
2022/12/08 12:56:51;;;;;;;22.33;21.02;;;;;;;;;;5098851;28;20705;-76
2022/12/08 12:59:36;;;;;;;22.00;20.70;;;;;;;;;;5096727;28;20197;-78
2022/12/08 13:02:03;;;;;;;23.58;22.08;;;;;;;;;;5098592;28;20212;-82
2022/12/08 13:04:32;;;;;;;22.92;21.45;;;;;;;;;;5098445;28;20216;-78
2022/12/08 13:06:59;;;;;;;23.52;22.02;;;;;;;;;;5099017;28;20235;-82
2022/12/08 13:09:32;;;;;;;22.00;20.73;;;;;;;;;;5098226;28;20205;-78
2022/12/08 13:12:01;;;;;;;23.00;21.50;;;;;;;;;;5101221;28;20677;-86
2022/12/08 13:14:30;;;;;;;22.50;21.20;;;;;;;;;;5099761;28;20215;-92
2022/12/08 13:16:59;;;;;;;22.48;21.08;;;;;;;;;;5102523;28;20234;-85
2022/12/08 13:19:26;;;;;;;23.38;21.95;;;;;;;;;;5106339;28;20294;-77
2022/12/08 13:21:54;;;;;;;23.90;22.45;;;;;;;;;;5102588;28;20217;-77
2022/12/08 13:24:29;;;;;;;22.52;20.95;;;;;;;;;;5099843;28;20684;-78
2022/12/08 13:27:11;;;;;;;22.85;21.45;;;;;;;;;;5101816;28;20224;-76
2022/12/08 13:29:39;;;;;;;22.98;21.55;;;;;;;;;;5099069;28;20215;-77
2022/12/08 13:32:29;;;;;;;22.67;21.27;;;;;;;;;;5101672;28;20245;-77
2022/12/08 13:34:58;;;;;;;22.42;21.02;;;;;;;;;;5099106;28;20666;-78
2022/12/08 13:37:26;;;;;;;23.30;22.00;;;;;;;;;;5100204;28;20724;-77
2022/12/08 13:39:55;;;;;;;23.00;21.60;;;;;;;;;;5100590;28;20221;-76
2022/12/08 13:42:25;;;;;;;24.20;22.65;;;;;;;;;;5099444;28;20212;-77
2022/12/08 13:44:57;;;;;;;22.70;21.30;;;;;;;;;;5111633;28;20597;-78
2022/12/08 13:47:26;;;;;;;23.60;22.20;;;;;;;;;;5116361;28;20205;-76
2022/12/08 13:49:55;;;;;;;24.10;22.70;;;;;;;;;;5113111;28;20241;-77
2022/12/08 13:52:34;;;;;;;21.95;20.48;;;;;;;;;;5101162;28;20209;-77
2022/12/08 13:55:02;;;;;;;21.55;20.25;;;;;;;;;;5105786;28;20197;-76
2022/12/08 13:57:30;;;;;;;22.15;20.85;;;;;;;;;;5098209;28;20696;-77
2022/12/08 14:00:02;;;;;;;21.67;20.38;;;;;;;;;;5096712;28;20213;-77
2022/12/08 14:02:32;;;;;;;21.17;19.98;;;;;;;;;;5098552;28;20200;-77
2022/12/08 14:04:59;;;;;;;21.60;20.40;;;;;;;;;;5100063;28;20198;-77
2022/12/08 14:07:26;;;;;;;22.63;21.25;;;;;;;;;;5102029;28;20208;-77
2022/12/08 14:09:53;;;;;;;22.30;20.70;;;;;;;;;;5098996;28;20206;-77
2022/12/08 14:12:22;;;;;;;21.60;20.35;;;;;;;;;;5099344;28;20208;-77
2022/12/08 14:14:50;;;;;;;21.50;20.30;;;;;;;;;;5098874;28;20200;-77
2022/12/08 14:17:19;;;;;;;22.00;20.60;;;;;;;;;;5098222;28;20225;-76
2022/12/08 14:19:53;;;;;;;21.02;19.80;;;;;;;;;;5098421;28;20215;-76
2022/12/08 14:22:20;;;;;;;22.30;21.00;;;;;;;;;;5097085;28;20204;-77
2022/12/08 14:24:48;;;;;;;23.52;22.08;;;;;;;;;;5098261;28;20197;-77
2022/12/08 14:27:17;;;;;;;21.60;20.40;;;;;;;;;;5098089;28;20236;-77
2022/12/08 14:29:45;;;;;;;22.10;20.85;;;;;;;;;;5097131;28;20256;-77
2022/12/08 14:32:22;;;;;;;22.77;21.05;;;;;;;;;;5097110;28;20258;-76
2022/12/08 14:34:52;;;;;;;21.48;20.17;;;;;;;;;;5100718;28;20209;-76
2022/12/08 14:37:19;;;;;;;22.42;21.13;;;;;;;;;;5098263;28;20743;-77
2022/12/08 14:39:46;;;;;;;21.98;20.67;;;;;;;;;;5096367;28;20195;-77